sensor_id;sensor_type;location;lat;lon;timestamp;temperature;humidity
6052;DHT22;3054;51.204;4.430;2022-07-12T00:00:58;22.78;65.24
6052;DHT22;3054;51.204;4.430;2022-07-12T00:03:25;22.76;65.31
6052;DHT22;3054;51.204;4.430;2022-07-12T00:05:53;22.72;65.37
6052;DHT22;3054;51.204;4.430;2022-07-12T00:08:20;22.70;65.40
6052;DHT22;3054;51.204;4.430;2022-07-12T00:10:47;22.66;65.49
6052;DHT22;3054;51.204;4.430;2022-07-12T00:13:14;22.64;65.59
6052;DHT22;3054;51.204;4.430;2022-07-12T00:15:41;22.62;65.73
6052;DHT22;3054;51.204;4.430;2022-07-12T00:18:09;22.56;65.86
6052;DHT22;3054;51.204;4.430;2022-07-12T00:20:37;22.53;65.98
6052;DHT22;3054;51.204;4.430;2022-07-12T00:23:05;22.52;66.14
6052;DHT22;3054;51.204;4.430;2022-07-12T00:25:32;22.51;66.17
6052;DHT22;3054;51.204;4.430;2022-07-12T00:27:59;22.49;66.22
6052;DHT22;3054;51.204;4.430;2022-07-12T00:30:25;22.47;66.30
6052;DHT22;3054;51.204;4.430;2022-07-12T00:32:52;22.42;66.39
6052;DHT22;3054;51.204;4.430;2022-07-12T00:35:19;22.38;66.48
6052;DHT22;3054;51.204;4.430;2022-07-12T00:37:46;22.36;66.59
6052;DHT22;3054;51.204;4.430;2022-07-12T00:40:14;22.35;66.66
6052;DHT22;3054;51.204;4.430;2022-07-12T00:42:41;22.34;66.69
6052;DHT22;3054;51.204;4.430;2022-07-12T00:45:09;22.34;66.72
6052;DHT22;3054;51.204;4.430;2022-07-12T00:47:37;22.32;66.74
6052;DHT22;3054;51.204;4.430;2022-07-12T00:50:07;22.29;66.81
6052;DHT22;3054;51.204;4.430;2022-07-12T00:52:37;22.24;66.85
6052;DHT22;3054;51.204;4.430;2022-07-12T00:55:06;22.20;66.98
6052;DHT22;3054;51.204;4.430;2022-07-12T00:57:35;22.16;67.09
6052;DHT22;3054;51.204;4.430;2022-07-12T01:00:04;22.10;67.22
6052;DHT22;3054;51.204;4.430;2022-07-12T01:02:31;22.05;67.39
6052;DHT22;3054;51.204;4.430;2022-07-12T01:04:59;22.04;67.45
6052;DHT22;3054;51.204;4.430;2022-07-12T01:07:28;21.97;67.59
6052;DHT22;3054;51.204;4.430;2022-07-12T01:09:55;21.94;67.72
6052;DHT22;3054;51.204;4.430;2022-07-12T01:12:22;21.92;67.77
6052;DHT22;3054;51.204;4.430;2022-07-12T01:14:52;21.90;67.88
6052;DHT22;3054;51.204;4.430;2022-07-12T01:17:22;21.85;67.94
6052;DHT22;3054;51.204;4.430;2022-07-12T01:19:50;21.84;67.96
6052;DHT22;3054;51.204;4.430;2022-07-12T01:22:18;21.80;68.04
6052;DHT22;3054;51.204;4.430;2022-07-12T01:24:47;21.79;68.09
6052;DHT22;3054;51.204;4.430;2022-07-12T01:27:13;21.75;68.12
6052;DHT22;3054;51.204;4.430;2022-07-12T01:29:40;21.73;68.17
6052;DHT22;3054;51.204;4.430;2022-07-12T01:32:08;21.69;68.23
6052;DHT22;3054;51.204;4.430;2022-07-12T01:34:56;21.65;68.33
6052;DHT22;3054;51.204;4.430;2022-07-12T01:37:25;21.65;68.39
6052;DHT22;3054;51.204;4.430;2022-07-12T01:39:57;21.63;68.46
6052;DHT22;3054;51.204;4.430;2022-07-12T01:42:26;21.60;68.49
6052;DHT22;3054;51.204;4.430;2022-07-12T01:44:54;21.55;68.62
6052;DHT22;3054;51.204;4.430;2022-07-12T01:47:24;21.54;68.68
6052;DHT22;3054;51.204;4.430;2022-07-12T01:49:51;21.52;68.74
6052;DHT22;3054;51.204;4.430;2022-07-12T01:52:19;21.50;68.81
6052;DHT22;3054;51.204;4.430;2022-07-12T01:54:46;21.51;68.81
6052;DHT22;3054;51.204;4.430;2022-07-12T01:57:15;21.52;68.81
6052;DHT22;3054;51.204;4.430;2022-07-12T01:59:43;21.52;68.78
6052;DHT22;3054;51.204;4.430;2022-07-12T02:02:10;21.47;68.85
6052;DHT22;3054;51.204;4.430;2022-07-12T02:04:37;21.44;68.86
6052;DHT22;3054;51.204;4.430;2022-07-12T02:07:04;21.42;68.97
6052;DHT22;3054;51.204;4.430;2022-07-12T02:09:31;21.39;68.97
6052;DHT22;3054;51.204;4.430;2022-07-12T02:11:59;21.40;68.94
6052;DHT22;3054;51.204;4.430;2022-07-12T02:14:27;21.38;69.00
6052;DHT22;3054;51.204;4.430;2022-07-12T02:16:56;21.38;69.02
6052;DHT22;3054;51.204;4.430;2022-07-12T02:19:24;21.36;69.09
6052;DHT22;3054;51.204;4.430;2022-07-12T02:21:50;21.34;69.07
6052;DHT22;3054;51.204;4.430;2022-07-12T02:24:17;21.34;69.06
6052;DHT22;3054;51.204;4.430;2022-07-12T02:26:44;21.35;69.04
6052;DHT22;3054;51.204;4.430;2022-07-12T02:29:11;21.32;69.09
6052;DHT22;3054;51.204;4.430;2022-07-12T02:31:39;21.29;69.21
6052;DHT22;3054;51.204;4.430;2022-07-12T02:34:06;21.27;69.23
6052;DHT22;3054;51.204;4.430;2022-07-12T02:36:33;21.23;69.27
6052;DHT22;3054;51.204;4.430;2022-07-12T02:39:00;21.23;69.23
6052;DHT22;3054;51.204;4.430;2022-07-12T02:41:29;21.23;69.28
6052;DHT22;3054;51.204;4.430;2022-07-12T02:43:57;21.20;69.29
6052;DHT22;3054;51.204;4.430;2022-07-12T02:46:23;21.20;69.31
6052;DHT22;3054;51.204;4.430;2022-07-12T02:48:52;21.19;69.29
6052;DHT22;3054;51.204;4.430;2022-07-12T02:51:19;21.18;69.29
6052;DHT22;3054;51.204;4.430;2022-07-12T02:53:46;21.16;69.29
6052;DHT22;3054;51.204;4.430;2022-07-12T02:56:13;21.13;69.33
6052;DHT22;3054;51.204;4.430;2022-07-12T02:58:40;21.07;69.45
6052;DHT22;3054;51.204;4.430;2022-07-12T03:01:07;21.05;69.50
6052;DHT22;3054;51.204;4.430;2022-07-12T03:03:34;21.06;69.50
6052;DHT22;3054;51.204;4.430;2022-07-12T03:06:03;21.04;69.58
6052;DHT22;3054;51.204;4.430;2022-07-12T03:08:30;21.04;69.55
6052;DHT22;3054;51.204;4.430;2022-07-12T03:10:56;21.01;69.60
6052;DHT22;3054;51.204;4.430;2022-07-12T03:13:23;21.00;69.64
6052;DHT22;3054;51.204;4.430;2022-07-12T03:15:50;20.98;69.70
6052;DHT22;3054;51.204;4.430;2022-07-12T03:18:17;20.98;69.69
6052;DHT22;3054;51.204;4.430;2022-07-12T03:20:44;20.93;69.74
6052;DHT22;3054;51.204;4.430;2022-07-12T03:23:12;20.93;69.81
6052;DHT22;3054;51.204;4.430;2022-07-12T03:25:39;20.90;69.85
6052;DHT22;3054;51.204;4.430;2022-07-12T03:28:06;20.88;69.89
6052;DHT22;3054;51.204;4.430;2022-07-12T03:30:33;20.87;69.94
6052;DHT22;3054;51.204;4.430;2022-07-12T03:33:00;20.86;69.99
6052;DHT22;3054;51.204;4.430;2022-07-12T03:35:27;20.86;70.03
6052;DHT22;3054;51.204;4.430;2022-07-12T03:37:57;20.87;69.97
6052;DHT22;3054;51.204;4.430;2022-07-12T03:40:25;20.87;70.01
6052;DHT22;3054;51.204;4.430;2022-07-12T03:42:52;20.87;70.04
6052;DHT22;3054;51.204;4.430;2022-07-12T03:45:18;20.86;70.03
6052;DHT22;3054;51.204;4.430;2022-07-12T03:47:45;20.83;70.13
6052;DHT22;3054;51.204;4.430;2022-07-12T03:50:14;20.83;70.10
6052;DHT22;3054;51.204;4.430;2022-07-12T03:52:42;20.81;70.16
6052;DHT22;3054;51.204;4.430;2022-07-12T03:55:10;20.80;70.19
6052;DHT22;3054;51.204;4.430;2022-07-12T03:57:39;20.75;70.29
6052;DHT22;3054;51.204;4.430;2022-07-12T04:00:08;20.76;70.28
6052;DHT22;3054;51.204;4.430;2022-07-12T04:02:36;20.77;70.31
6052;DHT22;3054;51.204;4.430;2022-07-12T04:05:04;20.76;70.32
6052;DHT22;3054;51.204;4.430;2022-07-12T04:07:32;20.76;70.30
6052;DHT22;3054;51.204;4.430;2022-07-12T04:09:58;20.79;70.27
6052;DHT22;3054;51.204;4.430;2022-07-12T04:12:25;20.79;70.28
6052;DHT22;3054;51.204;4.430;2022-07-12T04:14:53;20.83;70.28
6052;DHT22;3054;51.204;4.430;2022-07-12T04:17:20;20.84;70.20
6052;DHT22;3054;51.204;4.430;2022-07-12T04:19:47;20.84;70.24
6052;DHT22;3054;51.204;4.430;2022-07-12T04:22:14;20.88;70.18
6052;DHT22;3054;51.204;4.430;2022-07-12T04:24:41;20.88;70.19
6052;DHT22;3054;51.204;4.430;2022-07-12T04:27:08;20.90;70.18
6052;DHT22;3054;51.204;4.430;2022-07-12T04:29:35;20.93;70.10
6052;DHT22;3054;51.204;4.430;2022-07-12T04:32:03;20.95;70.07
6052;DHT22;3054;51.204;4.430;2022-07-12T04:34:30;20.98;70.03
6052;DHT22;3054;51.204;4.430;2022-07-12T04:36:57;21.00;70.00
6052;DHT22;3054;51.204;4.430;2022-07-12T04:39:24;21.05;69.90
6052;DHT22;3054;51.204;4.430;2022-07-12T04:41:51;21.09;69.89
6052;DHT22;3054;51.204;4.430;2022-07-12T04:44:18;21.13;69.78
6052;DHT22;3054;51.204;4.430;2022-07-12T04:46:45;21.13;69.73
6052;DHT22;3054;51.204;4.430;2022-07-12T04:49:13;21.16;69.75
6052;DHT22;3054;51.204;4.430;2022-07-12T04:51:40;21.22;69.58
6052;DHT22;3054;51.204;4.430;2022-07-12T04:54:07;21.31;69.44
6052;DHT22;3054;51.204;4.430;2022-07-12T04:56:34;21.40;69.13
6052;DHT22;3054;51.204;4.430;2022-07-12T04:59:01;21.43;68.95
6052;DHT22;3054;51.204;4.430;2022-07-12T05:01:28;21.48;68.80
6052;DHT22;3054;51.204;4.430;2022-07-12T05:03:55;21.44;68.82
6052;DHT22;3054;51.204;4.430;2022-07-12T05:06:23;21.46;68.82
6052;DHT22;3054;51.204;4.430;2022-07-12T05:08:50;21.53;68.63
6052;DHT22;3054;51.204;4.430;2022-07-12T05:11:17;21.52;68.46
6052;DHT22;3054;51.204;4.430;2022-07-12T05:13:44;21.48;68.65
6052;DHT22;3054;51.204;4.430;2022-07-12T05:16:11;21.61;68.42
6052;DHT22;3054;51.204;4.430;2022-07-12T05:18:38;21.61;68.36
6052;DHT22;3054;51.204;4.430;2022-07-12T05:21:05;21.67;68.24
6052;DHT22;3054;51.204;4.430;2022-07-12T05:23:34;21.72;68.12
6052;DHT22;3054;51.204;4.430;2022-07-12T05:26:01;21.81;67.95
6052;DHT22;3054;51.204;4.430;2022-07-12T05:28:28;21.91;67.87
6052;DHT22;3054;51.204;4.430;2022-07-12T05:30:54;21.98;67.72
6052;DHT22;3054;51.204;4.430;2022-07-12T05:33:22;22.05;67.47
6052;DHT22;3054;51.204;4.430;2022-07-12T05:35:49;22.10;67.36
6052;DHT22;3054;51.204;4.430;2022-07-12T05:38:17;22.13;67.28
6052;DHT22;3054;51.204;4.430;2022-07-12T05:40:45;22.21;67.10
6052;DHT22;3054;51.204;4.430;2022-07-12T05:43:12;22.27;66.89
6052;DHT22;3054;51.204;4.430;2022-07-12T05:45:40;22.29;66.85
6052;DHT22;3054;51.204;4.430;2022-07-12T05:48:07;22.27;66.85
6052;DHT22;3054;51.204;4.430;2022-07-12T05:50:34;22.27;66.85
6052;DHT22;3054;51.204;4.430;2022-07-12T05:53:01;22.33;66.75
6052;DHT22;3054;51.204;4.430;2022-07-12T05:55:47;22.43;66.57
6052;DHT22;3054;51.204;4.430;2022-07-12T05:58:14;22.49;66.46
6052;DHT22;3054;51.204;4.430;2022-07-12T06:00:41;22.56;66.30
6052;DHT22;3054;51.204;4.430;2022-07-12T06:03:08;22.70;65.91
6052;DHT22;3054;51.204;4.430;2022-07-12T06:05:35;22.78;65.78
6052;DHT22;3054;51.204;4.430;2022-07-12T06:08:03;22.86;65.43
6052;DHT22;3054;51.204;4.430;2022-07-12T06:10:30;22.93;65.27
6052;DHT22;3054;51.204;4.430;2022-07-12T06:12:58;23.03;65.01
6052;DHT22;3054;51.204;4.430;2022-07-12T06:15:25;23.06;64.86
6052;DHT22;3054;51.204;4.430;2022-07-12T06:17:52;23.02;64.77
6052;DHT22;3054;51.204;4.430;2022-07-12T06:20:19;23.05;64.67
6052;DHT22;3054;51.204;4.430;2022-07-12T06:22:46;23.14;64.37
6052;DHT22;3054;51.204;4.430;2022-07-12T06:25:13;23.18;64.17
6052;DHT22;3054;51.204;4.430;2022-07-12T06:27:40;23.26;64.00
6052;DHT22;3054;51.204;4.430;2022-07-12T06:30:09;23.32;63.77
6052;DHT22;3054;51.204;4.430;2022-07-12T06:32:36;23.44;63.33
6052;DHT22;3054;51.204;4.430;2022-07-12T06:35:03;23.47;63.08
6052;DHT22;3054;51.204;4.430;2022-07-12T06:37:30;23.56;62.81
6052;DHT22;3054;51.204;4.430;2022-07-12T06:39:57;23.61;62.38
6052;DHT22;3054;51.204;4.430;2022-07-12T06:42:27;23.59;62.20
6052;DHT22;3054;51.204;4.430;2022-07-12T06:44:54;23.68;61.89
6052;DHT22;3054;51.204;4.430;2022-07-12T06:47:22;23.77;61.60
6052;DHT22;3054;51.204;4.430;2022-07-12T06:49:49;23.88;61.20
6052;DHT22;3054;51.204;4.430;2022-07-12T06:52:16;24.08;60.70
6052;DHT22;3054;51.204;4.430;2022-07-12T06:54:43;24.21;60.30
6052;DHT22;3054;51.204;4.430;2022-07-12T06:57:10;24.28;59.77
6052;DHT22;3054;51.204;4.430;2022-07-12T06:59:37;24.32;59.60
6052;DHT22;3054;51.204;4.430;2022-07-12T07:02:04;24.44;59.31
6052;DHT22;3054;51.204;4.430;2022-07-12T07:04:33;24.51;58.82
6052;DHT22;3054;51.204;4.430;2022-07-12T07:07:00;24.61;58.48
6052;DHT22;3054;51.204;4.430;2022-07-12T07:09:26;24.69;58.03
6052;DHT22;3054;51.204;4.430;2022-07-12T07:11:54;24.75;57.80
6052;DHT22;3054;51.204;4.430;2022-07-12T07:14:21;24.86;57.48
6052;DHT22;3054;51.204;4.430;2022-07-12T07:16:48;24.91;57.21
6052;DHT22;3054;51.204;4.430;2022-07-12T07:19:15;24.98;56.80
6052;DHT22;3054;51.204;4.430;2022-07-12T07:21:43;25.08;56.50
6052;DHT22;3054;51.204;4.430;2022-07-12T07:24:10;25.25;55.93
6052;DHT22;3054;51.204;4.430;2022-07-12T07:26:37;25.45;55.57
6052;DHT22;3054;51.204;4.430;2022-07-12T07:29:04;25.57;55.27
6052;DHT22;3054;51.204;4.430;2022-07-12T07:31:49;25.69;54.88
6052;DHT22;3054;51.204;4.430;2022-07-12T07:34:15;25.74;54.22
6052;DHT22;3054;51.204;4.430;2022-07-12T07:36:44;25.75;53.65
6052;DHT22;3054;51.204;4.430;2022-07-12T07:39:10;25.78;53.45
6052;DHT22;3054;51.204;4.430;2022-07-12T07:41:38;25.93;52.85
6052;DHT22;3054;51.204;4.430;2022-07-12T07:44:05;26.05;52.36
6052;DHT22;3054;51.204;4.430;2022-07-12T07:46:32;26.10;51.77
6052;DHT22;3054;51.204;4.430;2022-07-12T07:48:58;26.18;51.27
6052;DHT22;3054;51.204;4.430;2022-07-12T07:51:25;26.27;50.92
6052;DHT22;3054;51.204;4.430;2022-07-12T07:53:54;26.46;50.53
6052;DHT22;3054;51.204;4.430;2022-07-12T07:56:21;26.55;50.24
6052;DHT22;3054;51.204;4.430;2022-07-12T07:58:48;26.68;49.92
6052;DHT22;3054;51.204;4.430;2022-07-12T08:01:17;26.80;49.66
6052;DHT22;3054;51.204;4.430;2022-07-12T08:03:44;26.79;49.37
6052;DHT22;3054;51.204;4.430;2022-07-12T08:06:10;26.72;49.24
6052;DHT22;3054;51.204;4.430;2022-07-12T08:08:37;26.70;49.07
6052;DHT22;3054;51.204;4.430;2022-07-12T08:11:09;26.63;48.95
6052;DHT22;3054;51.204;4.430;2022-07-12T08:13:36;26.66;48.99
6052;DHT22;3054;51.204;4.430;2022-07-12T08:16:03;26.93;48.60
6052;DHT22;3054;51.204;4.430;2022-07-12T08:18:30;26.98;48.25
6052;DHT22;3054;51.204;4.430;2022-07-12T08:20:57;26.93;48.31
6052;DHT22;3054;51.204;4.430;2022-07-12T08:23:24;26.91;48.39
6052;DHT22;3054;51.204;4.430;2022-07-12T08:25:51;27.10;48.21
6052;DHT22;3054;51.204;4.430;2022-07-12T08:28:19;27.27;48.13
6052;DHT22;3054;51.204;4.430;2022-07-12T08:30:46;27.53;47.67
6052;DHT22;3054;51.204;4.430;2022-07-12T08:33:14;27.67;47.34
6052;DHT22;3054;51.204;4.430;2022-07-12T08:35:41;27.79;47.13
6052;DHT22;3054;51.204;4.430;2022-07-12T08:38:09;27.83;46.93
6052;DHT22;3054;51.204;4.430;2022-07-12T08:40:36;27.88;46.80
6052;DHT22;3054;51.204;4.430;2022-07-12T08:43:03;28.05;46.32
6052;DHT22;3054;51.204;4.430;2022-07-12T08:45:32;28.17;46.07
6052;DHT22;3054;51.204;4.430;2022-07-12T08:47:58;28.40;45.42
6052;DHT22;3054;51.204;4.430;2022-07-12T08:50:25;28.48;45.25
6052;DHT22;3054;51.204;4.430;2022-07-12T08:52:54;28.63;44.93
6052;DHT22;3054;51.204;4.430;2022-07-12T08:55:23;28.88;44.48
6052;DHT22;3054;51.204;4.430;2022-07-12T08:57:52;29.06;43.91
6052;DHT22;3054;51.204;4.430;2022-07-12T09:00:20;29.46;43.23
6052;DHT22;3054;51.204;4.430;2022-07-12T09:02:49;29.94;42.17
6052;DHT22;3054;51.204;4.430;2022-07-12T09:05:18;30.23;41.45
6052;DHT22;3054;51.204;4.430;2022-07-12T09:07:45;30.48;40.85
6052;DHT22;3054;51.204;4.430;2022-07-12T09:10:12;30.80;40.22
6052;DHT22;3054;51.204;4.430;2022-07-12T09:12:41;31.31;39.24
6052;DHT22;3054;51.204;4.430;2022-07-12T09:15:13;32.22;37.86
6052;DHT22;3054;51.204;4.430;2022-07-12T09:17:41;33.34;35.60
6052;DHT22;3054;51.204;4.430;2022-07-12T09:20:15;34.66;33.85
6052;DHT22;3054;51.204;4.430;2022-07-12T09:22:50;35.83;32.01
6052;DHT22;3054;51.204;4.430;2022-07-12T09:25:21;37.35;30.61
6052;DHT22;3054;51.204;4.430;2022-07-12T09:27:51;39.24;28.92
6052;DHT22;3054;51.204;4.430;2022-07-12T09:30:19;40.70;27.49
6052;DHT22;3054;51.204;4.430;2022-07-12T09:32:50;43.00;25.40
6052;DHT22;3054;51.204;4.430;2022-07-12T09:35:33;43.93;23.11
6052;DHT22;3054;51.204;4.430;2022-07-12T09:38:17;44.09;23.50
6052;DHT22;3054;51.204;4.430;2022-07-12T09:40:44;44.22;22.39
6052;DHT22;3054;51.204;4.430;2022-07-12T09:43:13;44.69;22.64
6052;DHT22;3054;51.204;4.430;2022-07-12T09:45:40;45.92;21.67
6052;DHT22;3054;51.204;4.430;2022-07-12T09:48:09;47.08;20.89
6052;DHT22;3054;51.204;4.430;2022-07-12T09:50:38;48.05;19.79
6052;DHT22;3054;51.204;4.430;2022-07-12T09:53:05;48.19;19.13
6052;DHT22;3054;51.204;4.430;2022-07-12T09:55:37;48.11;19.55
6052;DHT22;3054;51.204;4.430;2022-07-12T09:58:07;48.82;18.96
6052;DHT22;3054;51.204;4.430;2022-07-12T10:00:35;49.82;18.64
6052;DHT22;3054;51.204;4.430;2022-07-12T10:03:03;50.92;17.58
6052;DHT22;3054;51.204;4.430;2022-07-12T10:05:31;51.09;16.61
6052;DHT22;3054;51.204;4.430;2022-07-12T10:08:01;51.25;16.91
6052;DHT22;3054;51.204;4.430;2022-07-12T10:10:28;52.66;15.80
6052;DHT22;3054;51.204;4.430;2022-07-12T10:12:56;51.58;15.27
6052;DHT22;3054;51.204;4.430;2022-07-12T10:15:25;49.85;16.45
6052;DHT22;3054;51.204;4.430;2022-07-12T10:17:55;48.55;16.96
6052;DHT22;3054;51.204;4.430;2022-07-12T10:20:25;47.45;17.25
6052;DHT22;3054;51.204;4.430;2022-07-12T10:22:53;45.26;18.25
6052;DHT22;3054;51.204;4.430;2022-07-12T10:25:32;44.17;18.93
6052;DHT22;3054;51.204;4.430;2022-07-12T10:28:00;44.06;20.05
6052;DHT22;3054;51.204;4.430;2022-07-12T10:30:28;45.00;19.29
6052;DHT22;3054;51.204;4.430;2022-07-12T10:32:56;45.99;18.63
6052;DHT22;3054;51.204;4.430;2022-07-12T10:35:26;46.14;17.99
6052;DHT22;3054;51.204;4.430;2022-07-12T10:38:18;46.80;18.31
6052;DHT22;3054;51.204;4.430;2022-07-12T10:40:53;48.44;17.99
6052;DHT22;3054;51.204;4.430;2022-07-12T10:43:24;50.07;16.38
6052;DHT22;3054;51.204;4.430;2022-07-12T10:46:14;52.02;15.35
6052;DHT22;3054;51.204;4.430;2022-07-12T10:48:43;51.55;14.50
6052;DHT22;3054;51.204;4.430;2022-07-12T10:51:14;50.09;14.45
6052;DHT22;3054;51.204;4.430;2022-07-12T10:53:42;47.99;15.37
6052;DHT22;3054;51.204;4.430;2022-07-12T10:56:17;46.31;16.48
6052;DHT22;3054;51.204;4.430;2022-07-12T10:58:47;44.51;17.82
6052;DHT22;3054;51.204;4.430;2022-07-12T11:01:17;43.33;18.92
6052;DHT22;3054;51.204;4.430;2022-07-12T11:03:46;42.29;19.55
6052;DHT22;3054;51.204;4.430;2022-07-12T11:06:14;41.48;20.16
6052;DHT22;3054;51.204;4.430;2022-07-12T11:08:48;40.51;20.94
6052;DHT22;3054;51.204;4.430;2022-07-12T11:11:17;39.98;21.66
6052;DHT22;3054;51.204;4.430;2022-07-12T11:13:45;39.70;21.73
6052;DHT22;3054;51.204;4.430;2022-07-12T11:16:12;38.86;22.01
6052;DHT22;3054;51.204;4.430;2022-07-12T11:18:39;38.40;22.47
6052;DHT22;3054;51.204;4.430;2022-07-12T11:21:06;38.29;22.72
6052;DHT22;3054;51.204;4.430;2022-07-12T11:23:33;38.00;22.86
6052;DHT22;3054;51.204;4.430;2022-07-12T11:26:02;37.94;22.88
6052;DHT22;3054;51.204;4.430;2022-07-12T11:28:32;37.75;23.06
6052;DHT22;3054;51.204;4.430;2022-07-12T11:31:03;37.75;23.18
6052;DHT22;3054;51.204;4.430;2022-07-12T11:33:32;38.69;22.98
6052;DHT22;3054;51.204;4.430;2022-07-12T11:36:00;40.99;22.01
6052;DHT22;3054;51.204;4.430;2022-07-12T11:38:29;44.11;20.05
6052;DHT22;3054;51.204;4.430;2022-07-12T11:40:57;45.34;18.93
6052;DHT22;3054;51.204;4.430;2022-07-12T11:43:24;46.16;16.71
6052;DHT22;3054;51.204;4.430;2022-07-12T11:45:54;44.55;16.60
6052;DHT22;3054;51.204;4.430;2022-07-12T11:48:21;43.92;17.69
6052;DHT22;3054;51.204;4.430;2022-07-12T11:50:51;43.00;18.51
6052;DHT22;3054;51.204;4.430;2022-07-12T11:53:19;41.70;19.79
6052;DHT22;3054;51.204;4.430;2022-07-12T11:55:48;40.56;20.89
6052;DHT22;3054;51.204;4.430;2022-07-12T11:58:16;39.33;21.87
6052;DHT22;3054;51.204;4.430;2022-07-12T12:00:43;38.28;22.98
6052;DHT22;3054;51.204;4.430;2022-07-12T12:03:13;37.62;23.54
6052;DHT22;3054;51.204;4.430;2022-07-12T12:05:42;37.14;24.24
6052;DHT22;3054;51.204;4.430;2022-07-12T12:08:09;36.98;24.54
6052;DHT22;3054;51.204;4.430;2022-07-12T12:10:38;36.75;24.80
6052;DHT22;3054;51.204;4.430;2022-07-12T12:13:12;36.59;24.96
6052;DHT22;3054;51.204;4.430;2022-07-12T12:15:40;36.37;25.08
6052;DHT22;3054;51.204;4.430;2022-07-12T12:18:07;36.21;25.24
6052;DHT22;3054;51.204;4.430;2022-07-12T12:20:37;36.11;25.37
6052;DHT22;3054;51.204;4.430;2022-07-12T12:23:05;36.00;25.52
6052;DHT22;3054;51.204;4.430;2022-07-12T12:25:33;36.03;25.33
6052;DHT22;3054;51.204;4.430;2022-07-12T12:28:01;36.02;25.14
6052;DHT22;3054;51.204;4.430;2022-07-12T12:30:30;36.01;25.14
6052;DHT22;3054;51.204;4.430;2022-07-12T12:32:58;35.88;25.35
6052;DHT22;3054;51.204;4.430;2022-07-12T12:35:30;35.66;25.30
6052;DHT22;3054;51.204;4.430;2022-07-12T12:38:00;35.41;25.44
6052;DHT22;3054;51.204;4.430;2022-07-12T12:40:31;35.01;25.35
6052;DHT22;3054;51.204;4.430;2022-07-12T12:43:07;34.85;25.11
6052;DHT22;3054;51.204;4.430;2022-07-12T12:45:34;34.63;25.31
6052;DHT22;3054;51.204;4.430;2022-07-12T12:48:03;34.54;25.16
6052;DHT22;3054;51.204;4.430;2022-07-12T12:50:38;34.41;25.11
6052;DHT22;3054;51.204;4.430;2022-07-12T12:53:10;34.45;25.09
6052;DHT22;3054;51.204;4.430;2022-07-12T12:55:38;34.42;25.11
6052;DHT22;3054;51.204;4.430;2022-07-12T12:58:05;34.25;25.43
6052;DHT22;3054;51.204;4.430;2022-07-12T13:00:35;34.09;25.92
6052;DHT22;3054;51.204;4.430;2022-07-12T13:03:03;34.06;26.23
6052;DHT22;3054;51.204;4.430;2022-07-12T13:05:30;34.09;26.40
6052;DHT22;3054;51.204;4.430;2022-07-12T13:07:57;34.05;26.54
6052;DHT22;3054;51.204;4.430;2022-07-12T13:10:26;34.03;26.61
6052;DHT22;3054;51.204;4.430;2022-07-12T13:12:53;33.95;26.90
6052;DHT22;3054;51.204;4.430;2022-07-12T13:15:20;33.96;26.92
6052;DHT22;3054;51.204;4.430;2022-07-12T13:17:47;33.80;26.95
6052;DHT22;3054;51.204;4.430;2022-07-12T13:20:14;33.77;26.92
6052;DHT22;3054;51.204;4.430;2022-07-12T13:22:41;33.66;26.95
6052;DHT22;3054;51.204;4.430;2022-07-12T13:25:09;33.58;27.03
6052;DHT22;3054;51.204;4.430;2022-07-12T13:27:38;33.41;26.91
6052;DHT22;3054;51.204;4.430;2022-07-12T13:30:07;33.29;26.99
6052;DHT22;3054;51.204;4.430;2022-07-12T13:32:35;33.22;27.17
6052;DHT22;3054;51.204;4.430;2022-07-12T13:35:03;33.16;27.34
6052;DHT22;3054;51.204;4.430;2022-07-12T13:37:31;33.12;27.34
6052;DHT22;3054;51.204;4.430;2022-07-12T13:39:58;33.04;27.20
6052;DHT22;3054;51.204;4.430;2022-07-12T13:42:39;33.01;27.02
6052;DHT22;3054;51.204;4.430;2022-07-12T13:45:07;32.93;27.02
6052;DHT22;3054;51.204;4.430;2022-07-12T13:47:36;32.89;27.00
6052;DHT22;3054;51.204;4.430;2022-07-12T13:50:04;32.85;27.02
6052;DHT22;3054;51.204;4.430;2022-07-12T13:52:31;32.84;27.17
6052;DHT22;3054;51.204;4.430;2022-07-12T13:54:58;32.72;27.51
6052;DHT22;3054;51.204;4.430;2022-07-12T13:57:25;32.68;27.70
6052;DHT22;3054;51.204;4.430;2022-07-12T13:59:53;32.72;27.83
6052;DHT22;3054;51.204;4.430;2022-07-12T14:02:20;32.77;27.77
6052;DHT22;3054;51.204;4.430;2022-07-12T14:04:48;32.77;27.77
6052;DHT22;3054;51.204;4.430;2022-07-12T14:07:15;32.79;27.65
6052;DHT22;3054;51.204;4.430;2022-07-12T14:09:42;32.78;27.62
6052;DHT22;3054;51.204;4.430;2022-07-12T14:12:09;32.82;27.63
6052;DHT22;3054;51.204;4.430;2022-07-12T14:14:36;32.73;27.67
6052;DHT22;3054;51.204;4.430;2022-07-12T14:17:33;32.67;27.58
6052;DHT22;3054;51.204;4.430;2022-07-12T14:20:00;32.64;27.34
6052;DHT22;3054;51.204;4.430;2022-07-12T14:22:30;32.62;27.29
6052;DHT22;3054;51.204;4.430;2022-07-12T14:24:56;32.58;27.36
6052;DHT22;3054;51.204;4.430;2022-07-12T14:27:24;32.62;27.23
6052;DHT22;3054;51.204;4.430;2022-07-12T14:29:51;32.62;27.26
6052;DHT22;3054;51.204;4.430;2022-07-12T14:32:18;32.67;27.25
6052;DHT22;3054;51.204;4.430;2022-07-12T14:34:46;32.63;27.02
6052;DHT22;3054;51.204;4.430;2022-07-12T14:37:13;32.55;26.99
6052;DHT22;3054;51.204;4.430;2022-07-12T14:39:40;32.50;26.97
6052;DHT22;3054;51.204;4.430;2022-07-12T14:42:07;32.59;27.02
6052;DHT22;3054;51.204;4.430;2022-07-12T14:44:36;32.67;27.11
6052;DHT22;3054;51.204;4.430;2022-07-12T14:47:03;32.74;27.26
6052;DHT22;3054;51.204;4.430;2022-07-12T14:49:30;32.82;27.36
6052;DHT22;3054;51.204;4.430;2022-07-12T14:51:59;32.87;27.31
6052;DHT22;3054;51.204;4.430;2022-07-12T14:54:26;32.92;27.33
6052;DHT22;3054;51.204;4.430;2022-07-12T14:56:53;32.93;27.41
6052;DHT22;3054;51.204;4.430;2022-07-12T14:59:20;32.94;27.48
6052;DHT22;3054;51.204;4.430;2022-07-12T15:01:48;32.96;27.52
6052;DHT22;3054;51.204;4.430;2022-07-12T15:04:15;32.99;27.50
6052;DHT22;3054;51.204;4.430;2022-07-12T15:06:42;32.99;27.36
6052;DHT22;3054;51.204;4.430;2022-07-12T15:09:11;32.94;27.29
6052;DHT22;3054;51.204;4.430;2022-07-12T15:11:38;32.89;27.36
6052;DHT22;3054;51.204;4.430;2022-07-12T15:14:06;32.89;27.43
6052;DHT22;3054;51.204;4.430;2022-07-12T15:16:32;32.86;27.59
6052;DHT22;3054;51.204;4.430;2022-07-12T15:18:59;32.84;27.84
6052;DHT22;3054;51.204;4.430;2022-07-12T15:21:26;32.90;28.14
6052;DHT22;3054;51.204;4.430;2022-07-12T15:23:53;32.92;28.26
6052;DHT22;3054;51.204;4.430;2022-07-12T15:26:22;32.94;28.01
6052;DHT22;3054;51.204;4.430;2022-07-12T15:28:50;32.94;27.85
6052;DHT22;3054;51.204;4.430;2022-07-12T15:31:18;32.92;27.87
6052;DHT22;3054;51.204;4.430;2022-07-12T15:33:45;32.91;27.94
6052;DHT22;3054;51.204;4.430;2022-07-12T15:36:13;32.84;28.12
6052;DHT22;3054;51.204;4.430;2022-07-12T15:38:41;32.74;28.19
6052;DHT22;3054;51.204;4.430;2022-07-12T15:41:08;32.74;28.26
6052;DHT22;3054;51.204;4.430;2022-07-12T15:43:37;32.75;28.50
6052;DHT22;3054;51.204;4.430;2022-07-12T15:46:05;32.76;28.58
6052;DHT22;3054;51.204;4.430;2022-07-12T15:48:32;32.69;28.76
6052;DHT22;3054;51.204;4.430;2022-07-12T15:50:59;32.68;28.77
6052;DHT22;3054;51.204;4.430;2022-07-12T15:53:26;32.66;28.89
6052;DHT22;3054;51.204;4.430;2022-07-12T15:55:56;32.63;28.84
6052;DHT22;3054;51.204;4.430;2022-07-12T15:58:26;32.69;28.68
6052;DHT22;3054;51.204;4.430;2022-07-12T16:00:55;32.73;28.45
6052;DHT22;3054;51.204;4.430;2022-07-12T16:03:22;32.74;28.13
6052;DHT22;3054;51.204;4.430;2022-07-12T16:05:50;32.69;28.15
6052;DHT22;3054;51.204;4.430;2022-07-12T16:08:17;32.63;28.14